Impacts TAF Board INFO
FOR SITUATIONAL AWARENESS. NOT TO BE USED FOR FLIGHT PLANNING PURPOSES.
IDs:

KPDX - Portland Intl Arpt, OR, US

Issued at 0309 UTC 23 May 2018
Updated at 0321 UTC 23 May 2018
Potential Impact None Slight Moderate High
Time0253Z 23/04Z 23/05Z 23/06Z 23/07Z 23/08Z 23/09Z 23/10Z 23/11Z 23/12Z 23/13Z 23/14Z 23/15Z 23/16Z>>
Type OBS PRVL PRVL PRVL PRVL PRVL PRVL PRVL PRVL PRVL PRVL PRVL PRVL PRVL
VIS 10 >6 >6 >6 >6 >6 >6 >6 >6 >6 >6 >6 >6 >6
CIG -- -- -- -- -- -- -- -- -- -- -- -- -- --
Cover FEW SKC SKC SKC SKC SKC SKC SKC SKC SKC SKC SKC SCT SCT
FltCat VFR VFR VFR VFR VFR VFR VFR VFR VFR VFR VFR VFR VFR VFR
WX -- -- -- -- -- -- -- -- -- -- -- -- -- --
WDir 340 310 290 290 290 290 290 290 290 290 290 290 300 300
WSpd 7 9 6 6 6 6 6 6 6 6 6 6 5 5
WGst 15 -- -- -- -- -- -- -- -- -- -- -- -- --

Raw TAF
KPDX 230309Z 2303/2324 31009KT P6SM SKC
  FM230500 29006KT P6SM SKC
  FM231500 30005KT P6SM SCT015
  FM231900 25005KT P6SM SCT050 BKN080


Raw METAR
KPDX 230253Z 34007G15KT 10SM FEW075 26/13 A2974 RMK AO2 SLP071 T02610133 55004
KPDX 230153Z 33007G15KT 10SM FEW070 FEW250 28/12 A2974 RMK AO2 SLP070 T02830117
KPDX 230053Z 34007KT 10SM FEW070 29/12 A2975 RMK AO2 SLP073 T02940117

METAR Board
Radar Display
Forecast Discussion

FOR SITUATIONAL AWARENESS. NOT TO BE USED FOR FLIGHT PLANNING PURPOSES.